createdAt,value
2019-05-10T00:00:06.226Z,69.28
2019-05-10T00:05:29.402Z,69.18
2019-05-10T00:10:33.022Z,69.50
2019-05-10T00:15:37.534Z,71.55
2019-05-10T00:20:41.891Z,70.01
2019-05-10T00:25:46.256Z,70.04
2019-05-10T00:30:50.626Z,70.12
2019-05-10T00:35:54.989Z,69.61
2019-05-10T00:40:59.335Z,69.32
2019-05-10T00:46:24.105Z,69.21
2019-05-10T00:51:28.466Z,69.22
2019-05-10T00:56:32.838Z,69.45
2019-05-10T01:01:37.216Z,69.64
2019-05-10T01:06:41.600Z,69.95
2019-05-10T01:11:45.946Z,70.31
2019-05-10T01:16:50.354Z,70.04
2019-05-10T01:21:54.703Z,69.93
2019-05-10T01:26:59.036Z,70.83
2019-05-10T01:32:03.575Z,71.73
2019-05-10T01:37:08.116Z,74.23
2019-05-10T01:42:12.562Z,74.85
2019-05-10T01:47:16.909Z,76.35
2019-05-10T01:52:21.258Z,76.84
2019-05-10T01:57:25.627Z,75.61
2019-05-10T02:02:29.996Z,78.36
2019-05-10T02:07:34.346Z,79.16
2019-05-10T02:12:38.684Z,79.11
2019-05-10T02:17:43.123Z,80.68
2019-05-10T02:22:47.506Z,80.66
2019-05-10T02:27:51.871Z,80.22
2019-05-10T02:32:56.234Z,81.36
2019-05-10T02:38:00.602Z,81.74
2019-05-10T02:43:05.068Z,80.04
2019-05-10T02:48:09.417Z,79.88
2019-05-10T02:53:13.926Z,81.58
2019-05-10T02:58:18.383Z,79.51
2019-05-10T03:03:24.771Z,80.97
2019-05-10T03:08:35.082Z,80.59
2019-05-10T03:13:40.799Z,78.99
2019-05-10T03:18:47.476Z,79.68
2019-05-10T03:23:52.088Z,79.54
2019-05-10T03:28:56.420Z,78.85
2019-05-10T03:34:00.945Z,79.94
2019-05-10T03:39:06.526Z,80.96
2019-05-10T03:44:10.876Z,80.80
2019-05-10T03:49:15.256Z,80.29
2019-05-10T03:54:19.583Z,80.94
2019-05-10T03:59:23.949Z,82.53
2019-05-10T04:04:28.325Z,82.37
2019-05-10T04:09:32.706Z,84.78
2019-05-10T04:14:37.056Z,82.21
2019-05-10T04:19:41.440Z,82.78
2019-05-10T04:24:45.911Z,80.64
2019-05-10T04:29:50.278Z,80.03
2019-05-10T04:34:54.608Z,80.23
2019-05-10T04:39:59.007Z,80.92
2019-05-10T04:45:03.541Z,79.77
2019-05-10T04:50:08.302Z,79.26
2019-05-10T04:55:12.751Z,78.07
2019-05-10T05:00:17.848Z,77.48
2019-05-10T05:05:22.203Z,74.90
2019-05-10T05:10:26.670Z,76.00
2019-05-10T05:15:31.008Z,77.07
2019-05-10T05:20:35.495Z,76.52
2019-05-10T05:25:40.614Z,74.25
2019-05-10T05:30:46.115Z,74.29
2019-05-10T05:35:50.500Z,74.21
2019-05-10T05:40:54.846Z,73.53
2019-05-10T05:45:59.223Z,72.38
2019-05-10T05:51:03.705Z,71.13
2019-05-10T05:56:12.855Z,69.30
2019-05-10T06:01:24.266Z,69.62
2019-05-10T06:06:23.375Z,67.31
2019-05-10T06:11:29.666Z,66.70
2019-05-10T06:16:32.531Z,66.65
2019-05-10T06:21:39.781Z,64.67
2019-05-10T06:26:44.180Z,64.84
2019-05-10T06:31:48.568Z,66.63
2019-05-10T06:36:52.997Z,67.72
2019-05-10T06:41:58.409Z,67.51
2019-05-10T06:47:08.417Z,67.83
2019-05-10T06:52:09.070Z,69.28
2019-05-10T06:57:17.677Z,69.17
2019-05-10T07:02:19.960Z,69.07
2019-05-10T07:07:42.649Z,68.85
2019-05-10T07:12:31.655Z,68.43
2019-05-10T07:17:41.336Z,69.19
2019-05-10T07:22:42.101Z,69.19
2019-05-10T07:27:50.153Z,68.42
2019-05-10T07:32:54.577Z,66.47
2019-05-10T07:37:58.742Z,67.36
2019-05-10T07:43:03.131Z,68.38
2019-05-10T07:48:10.149Z,68.12
2019-05-10T07:53:16.348Z,67.13
2019-05-10T07:58:19.682Z,69.13
2019-05-10T08:03:24.060Z,69.27
2019-05-10T08:08:29.651Z,68.58
2019-05-10T08:13:35.216Z,70.04
2019-05-10T08:18:42.329Z,70.60
2019-05-10T08:23:45.673Z,68.57
2019-05-10T08:28:52.404Z,68.35
2019-05-10T08:33:58.833Z,66.73
2019-05-10T08:39:09.523Z,67.31
2019-05-10T08:44:16.650Z,65.54
2019-05-10T08:49:14.747Z,65.33
2019-05-10T08:54:19.192Z,64.39
2019-05-10T08:59:26.701Z,63.40
2019-05-10T09:04:33.539Z,63.56
2019-05-10T09:09:45.897Z,63.24
2019-05-10T09:14:42.676Z,61.69
2019-05-10T09:19:48.298Z,61.06
2019-05-10T09:24:53.205Z,57.82
2019-05-10T09:29:57.749Z,56.67
2019-05-10T09:35:07.967Z,56.65
2019-05-10T09:40:09.915Z,56.54
2019-05-10T09:45:15.862Z,55.64
2019-05-10T09:50:22.933Z,53.02
2019-05-10T09:55:28.091Z,51.62
2019-05-10T10:00:38.027Z,48.67
2019-05-10T10:05:42.144Z,49.23
2019-05-10T10:10:47.586Z,50.92
2019-05-10T10:15:52.640Z,50.40
2019-05-10T10:20:57.139Z,51.35
2019-05-10T10:26:01.510Z,51.51
2019-05-10T10:31:08.246Z,51.17
2019-05-10T10:36:11.927Z,49.53
2019-05-10T10:41:25.190Z,47.08
2019-05-10T10:46:22.448Z,46.54
2019-05-10T10:51:32.422Z,47.24
2019-05-10T10:56:32.973Z,46.80
2019-05-10T11:01:47.220Z,44.97
2019-05-10T11:06:43.477Z,45.59
2019-05-10T11:11:47.918Z,47.10
2019-05-10T11:16:56.924Z,48.60
2019-05-10T11:22:02.244Z,46.79
2019-05-10T11:27:07.345Z,46.79
2019-05-10T11:32:16.289Z,45.75
2019-05-10T11:37:18.455Z,45.05
2019-05-10T11:42:23.671Z,44.53
2019-05-10T11:47:28.166Z,44.10
2019-05-10T11:52:34.775Z,43.60
2019-05-10T12:03:03.362Z,40.24
2019-05-10T12:07:51.705Z,40.96
2019-05-10T12:13:08.731Z,41.93
2019-05-10T12:18:04.719Z,43.22
2019-05-10T12:23:13.245Z,44.24
2019-05-10T12:26:05.894Z,41.91
2019-05-10T12:28:20.219Z,42.26
2019-05-10T12:33:25.211Z,41.27
2019-05-10T12:38:29.251Z,41.77
2019-05-10T12:43:33.450Z,42.05
2019-05-10T12:48:37.848Z,42.12
2019-05-10T12:53:47.674Z,41.62
2019-05-10T12:58:51.750Z,42.44
2019-05-10T13:03:54.379Z,41.36
2019-05-10T13:08:58.742Z,41.68
2019-05-10T13:14:07.465Z,42.09
2019-05-10T13:19:14.163Z,42.09
2019-05-10T13:24:15.405Z,41.97
2019-05-10T13:29:19.894Z,41.26
2019-05-10T13:34:24.610Z,39.75
2019-05-10T13:39:29.233Z,40.28
2019-05-10T13:44:36.937Z,40.09
2019-05-10T13:49:39.650Z,41.38
2019-05-10T13:54:43.991Z,40.27
2019-05-10T13:59:48.790Z,40.50
2019-05-10T14:04:54.409Z,40.55
2019-05-10T14:09:58.768Z,40.38
2019-05-10T14:15:08.570Z,41.31
2019-05-10T14:20:19.546Z,41.49
2019-05-10T14:25:15.903Z,42.02
2019-05-10T14:30:20.237Z,42.84
2019-05-10T14:35:24.632Z,43.60
2019-05-10T14:40:30.879Z,43.26
2019-05-10T14:45:35.147Z,43.78
2019-05-10T14:50:39.563Z,43.64
2019-05-10T14:55:44.100Z,42.09
2019-05-10T15:00:49.325Z,42.17
2019-05-10T15:05:55.305Z,42.70
2019-05-10T15:10:59.950Z,42.86
2019-05-10T15:16:08.244Z,41.82
2019-05-10T15:21:10.700Z,43.58
2019-05-10T15:26:15.139Z,44.41
2019-05-10T15:31:23.667Z,42.57
2019-05-10T15:36:29.468Z,41.32
2019-05-10T15:41:31.652Z,44.59
2019-05-10T15:46:41.510Z,45.43
2019-05-10T15:51:42.171Z,46.44
2019-05-10T15:56:46.657Z,47.72
2019-05-10T16:01:51.033Z,47.98
2019-05-10T16:06:55.482Z,48.09
2019-05-10T16:12:02.439Z,47.28
2019-05-10T16:17:10.538Z,46.13
2019-05-10T16:22:12.088Z,46.97
2019-05-10T16:27:16.539Z,47.29
2019-05-10T16:32:20.976Z,49.36
2019-05-10T16:37:25.487Z,50.43
2019-05-10T16:42:34.457Z,51.78
2019-05-10T16:47:35.900Z,51.85
2019-05-10T16:52:40.246Z,51.89
2019-05-10T16:57:44.649Z,51.46
2019-05-10T17:02:50.092Z,50.74
2019-05-10T17:07:58.900Z,51.52
2019-05-10T17:13:04.953Z,50.00
2019-05-10T17:18:10.821Z,49.74
2019-05-10T17:23:12.897Z,49.89
2019-05-10T17:28:17.257Z,49.09
2019-05-10T17:33:21.867Z,49.07
2019-05-10T17:38:26.233Z,49.42
2019-05-10T17:43:30.601Z,49.86
2019-05-10T17:48:34.969Z,51.18
2019-05-10T17:53:39.328Z,52.51
2019-05-10T17:58:43.706Z,54.24
2019-05-10T18:03:48.169Z,56.18
2019-05-10T18:08:52.552Z,55.35
2019-05-10T18:13:56.917Z,56.24
2019-05-10T18:19:01.354Z,56.42
2019-05-10T18:24:05.756Z,59.42
2019-05-10T18:29:10.139Z,59.42
2019-05-10T18:34:14.571Z,59.08
2019-05-10T18:39:22.419Z,60.68
2019-05-10T18:44:27.012Z,59.65
2019-05-10T18:49:33.307Z,60.23
2019-05-10T18:54:39.047Z,62.14
2019-05-10T18:59:46.880Z,63.70
2019-05-10T19:04:54.297Z,63.02
2019-05-10T19:10:01.935Z,62.67
2019-05-10T19:15:15.156Z,64.67
2019-05-10T19:20:18.513Z,64.50
2019-05-10T19:25:24.755Z,68.92
2019-05-10T19:30:32.744Z,64.77
2019-05-10T19:35:39.056Z,64.35
2019-05-10T19:40:44.301Z,69.35
2019-05-10T19:45:51.259Z,69.74
2019-05-10T19:50:55.204Z,70.00
2019-05-10T19:55:59.831Z,70.93
2019-05-10T20:01:04.519Z,72.22
2019-05-10T20:06:09.020Z,70.56
2019-05-10T20:11:13.507Z,72.16
2019-05-10T20:16:18.849Z,71.92
2019-05-10T20:21:23.195Z,71.74
2019-05-10T20:26:27.571Z,70.30
2019-05-10T20:31:32.980Z,69.82
2019-05-10T20:36:37.447Z,70.24
2019-05-10T20:41:41.937Z,70.56
2019-05-10T20:46:46.326Z,70.67
2019-05-10T20:51:50.658Z,70.39
2019-05-10T20:56:55.070Z,70.19
2019-05-10T21:01:59.524Z,71.27
2019-05-10T21:07:03.978Z,71.37
2019-05-10T21:12:08.387Z,73.80
2019-05-10T21:17:12.814Z,73.29
2019-05-10T21:22:17.166Z,73.57
2019-05-10T21:27:21.535Z,73.55
2019-05-10T21:32:25.928Z,73.80
2019-05-10T21:37:30.311Z,74.15
2019-05-10T21:42:34.653Z,74.56
2019-05-10T21:47:51.045Z,74.33
2019-05-10T21:52:48.082Z,76.03
2019-05-10T21:57:52.404Z,76.44
2019-05-10T22:02:56.772Z,75.67
2019-05-10T22:08:02.128Z,76.65
2019-05-10T22:13:06.539Z,76.56
2019-05-10T22:18:10.921Z,76.04
2019-05-10T22:23:18.569Z,73.82
2019-05-10T22:28:23.030Z,74.62
2019-05-10T22:33:27.391Z,75.12
2019-05-10T22:38:31.740Z,76.22
2019-05-10T22:43:36.083Z,76.98
2019-05-10T22:48:40.433Z,75.33
2019-05-10T22:53:53.216Z,74.53
2019-05-10T22:58:50.891Z,75.36
2019-05-10T23:03:55.643Z,74.88
2019-05-10T23:09:00.018Z,75.39
2019-05-10T23:14:04.615Z,75.40
2019-05-10T23:19:09.010Z,75.40
2019-05-10T23:24:15.003Z,75.11
2019-05-10T23:29:19.485Z,75.07
2019-05-10T23:34:23.902Z,75.21
2019-05-10T23:39:40.826Z,75.38
2019-05-10T23:44:46.089Z,74.76
2019-05-10T23:49:50.598Z,75.50
2019-05-10T23:54:54.959Z,76.15
2019-05-10T23:59:59.321Z,76.15
